createdAt,value
2022-08-03T00:01:36.153Z,100.00
2022-08-03T00:04:04.407Z,100.00
2022-08-03T00:06:36.814Z,100.00
2022-08-03T00:09:05.968Z,100.00
2022-08-03T00:11:35.880Z,100.00
2022-08-03T00:14:04.207Z,100.00
2022-08-03T00:16:32.318Z,100.00
2022-08-03T00:19:00.679Z,100.00
2022-08-03T00:21:29.164Z,100.00
2022-08-03T00:23:57.222Z,100.00
2022-08-03T00:26:25.189Z,100.00
2022-08-03T00:28:54.544Z,100.00
2022-08-03T00:31:40.093Z,100.00
2022-08-03T00:34:10.540Z,100.00
2022-08-03T00:36:41.233Z,100.00
2022-08-03T00:39:09.610Z,100.00
2022-08-03T00:41:37.627Z,100.00
2022-08-03T00:44:15.749Z,100.00
2022-08-03T00:46:43.797Z,100.00
2022-08-03T00:49:11.841Z,100.00
2022-08-03T00:51:40.087Z,100.00
2022-08-03T00:54:08.132Z,100.00
2022-08-03T00:56:36.165Z,100.00
2022-08-03T00:59:04.891Z,100.00
2022-08-03T01:01:34.399Z,100.00
2022-08-03T01:04:02.421Z,100.00
2022-08-03T01:06:35.767Z,100.00
2022-08-03T01:09:09.166Z,100.00
2022-08-03T01:11:59.798Z,100.00
2022-08-03T01:14:35.351Z,100.00
2022-08-03T01:17:13.444Z,100.00
2022-08-03T01:19:47.549Z,100.00
2022-08-03T01:22:47.490Z,100.00
2022-08-03T01:25:22.370Z,100.00
2022-08-03T01:27:58.545Z,100.00
2022-08-03T01:30:30.495Z,100.00
2022-08-03T01:33:02.536Z,100.00
2022-08-03T01:35:38.303Z,100.00
2022-08-03T01:38:10.314Z,100.00
2022-08-03T01:40:39.118Z,100.00
2022-08-03T01:43:07.954Z,100.00
2022-08-03T01:45:38.279Z,100.00
2022-08-03T01:48:07.027Z,100.00
2022-08-03T01:50:35.841Z,100.00
2022-08-03T01:53:03.995Z,100.00
2022-08-03T01:55:33.337Z,100.00
2022-08-03T01:58:05.365Z,100.00
2022-08-03T02:00:35.269Z,100.00
2022-08-03T02:03:06.668Z,100.00
2022-08-03T02:05:35.712Z,100.00
2022-08-03T02:08:05.180Z,100.00
2022-08-03T02:10:35.193Z,100.00
2022-08-03T02:13:05.490Z,100.00
2022-08-03T02:15:34.018Z,100.00
2022-08-03T02:18:04.828Z,100.00
2022-08-03T02:20:36.396Z,100.00
2022-08-03T02:23:04.558Z,100.00
2022-08-03T02:25:33.727Z,100.00
2022-08-03T02:28:08.203Z,100.00
2022-08-03T02:30:39.149Z,100.00
2022-08-03T02:33:13.255Z,100.00
2022-08-03T02:35:41.608Z,100.00
2022-08-03T02:38:11.588Z,100.00
2022-08-03T02:40:40.463Z,100.00
2022-08-03T02:43:10.443Z,100.00
2022-08-03T02:45:45.648Z,100.00
2022-08-03T02:48:17.656Z,100.00
2022-08-03T02:50:46.325Z,100.00
2022-08-03T02:53:15.056Z,100.00
2022-08-03T02:55:45.952Z,100.00
2022-08-03T02:58:15.225Z,100.00
2022-08-03T03:00:45.556Z,100.00
2022-08-03T03:03:15.671Z,100.00
2022-08-03T03:05:54.712Z,100.00
2022-08-03T03:08:28.410Z,100.00
2022-08-03T03:10:58.196Z,100.00
2022-08-03T03:13:26.690Z,100.00
2022-08-03T03:15:55.947Z,100.00
2022-08-03T03:18:25.781Z,100.00
2022-08-03T03:20:54.589Z,100.00
2022-08-03T03:23:23.193Z,100.00
2022-08-03T03:25:51.581Z,100.00
2022-08-03T03:28:19.683Z,100.00
2022-08-03T03:30:52.706Z,100.00
2022-08-03T03:33:21.706Z,100.00
2022-08-03T03:35:51.814Z,100.00
2022-08-03T03:38:20.328Z,100.00
2022-08-03T03:40:48.318Z,100.00
2022-08-03T03:43:18.570Z,100.00
2022-08-03T03:45:47.012Z,100.00
2022-08-03T03:48:15.097Z,100.00
2022-08-03T03:50:43.413Z,100.00
2022-08-03T03:53:13.730Z,100.00
2022-08-03T03:55:58.925Z,100.00
2022-08-03T03:58:31.328Z,100.00
2022-08-03T04:00:59.417Z,100.00
2022-08-03T04:03:27.486Z,100.00
2022-08-03T04:06:12.751Z,100.00
2022-08-03T04:09:14.101Z,100.00
2022-08-03T04:11:44.089Z,100.00
2022-08-03T04:14:14.183Z,100.00
2022-08-03T04:16:44.298Z,100.00
2022-08-03T04:19:19.671Z,100.00
2022-08-03T04:21:52.972Z,100.00
2022-08-03T04:24:27.323Z,100.00
2022-08-03T04:26:56.201Z,100.00
2022-08-03T04:29:25.343Z,100.00
2022-08-03T04:31:55.699Z,100.00
2022-08-03T04:34:23.813Z,100.00
2022-08-03T04:36:54.972Z,100.00
2022-08-03T04:39:28.039Z,100.00
2022-08-03T04:42:08.407Z,100.00
2022-08-03T04:44:39.158Z,100.00
2022-08-03T04:47:07.501Z,100.00
2022-08-03T04:49:37.882Z,100.00
2022-08-03T04:52:06.847Z,100.00
2022-08-03T04:54:42.555Z,100.00
2022-08-03T04:57:21.971Z,100.00
2022-08-03T04:59:54.762Z,100.00
2022-08-03T05:02:26.323Z,100.00
2022-08-03T05:04:54.316Z,100.00
2022-08-03T05:07:25.152Z,100.00
2022-08-03T05:10:01.365Z,100.00
2022-08-03T05:12:33.078Z,100.00
2022-08-03T05:15:01.511Z,100.00
2022-08-03T05:17:29.929Z,100.00
2022-08-03T05:19:58.059Z,100.00
2022-08-03T05:22:25.996Z,100.00
2022-08-03T05:24:55.456Z,100.00
2022-08-03T05:27:23.398Z,100.00
2022-08-03T05:29:52.042Z,100.00
2022-08-03T05:32:20.439Z,100.00
2022-08-03T05:34:48.523Z,100.00
2022-08-03T05:37:16.491Z,100.00
2022-08-03T05:39:44.449Z,100.00
2022-08-03T05:42:16.940Z,100.00
2022-08-03T05:44:45.113Z,100.00
2022-08-03T05:47:13.248Z,100.00
2022-08-03T05:49:41.326Z,100.00
2022-08-03T05:52:18.057Z,100.00
2022-08-03T05:54:55.590Z,100.00
2022-08-03T05:57:27.230Z,100.00
2022-08-03T05:59:58.319Z,100.00
2022-08-03T06:02:27.126Z,100.00
2022-08-03T06:04:55.178Z,100.00
2022-08-03T06:07:23.203Z,100.00
2022-08-03T06:10:36.725Z,100.00
2022-08-03T06:12:41.575Z,100.00
2022-08-03T06:15:11.677Z,100.00
2022-08-03T06:17:47.404Z,100.00
2022-08-03T06:20:17.771Z,100.00
2022-08-03T06:22:51.159Z,100.00
2022-08-03T06:25:28.230Z,100.00
2022-08-03T06:27:57.903Z,100.00
2022-08-03T06:30:28.460Z,100.00
2022-08-03T06:32:56.649Z,100.00
2022-08-03T06:35:24.823Z,100.00
2022-08-03T06:37:53.167Z,100.00
2022-08-03T06:40:28.563Z,100.00
2022-08-03T06:43:01.126Z,100.00
2022-08-03T06:45:31.762Z,100.00
2022-08-03T06:48:04.042Z,100.00
2022-08-03T06:50:32.264Z,100.00
2022-08-03T06:53:00.707Z,100.00
2022-08-03T06:55:29.151Z,100.00
2022-08-03T06:58:00.052Z,99.94
2022-08-03T07:00:34.498Z,99.92
2022-08-03T07:03:02.570Z,99.24
2022-08-03T07:05:33.511Z,100.00
2022-08-03T07:08:03.783Z,98.40
2022-08-03T07:10:31.775Z,98.71
2022-08-03T07:13:01.267Z,95.10
2022-08-03T07:15:54.265Z,93.74
2022-08-03T07:18:29.134Z,94.20
2022-08-03T07:20:58.194Z,91.84
2022-08-03T07:23:26.568Z,95.29
2022-08-03T07:25:55.094Z,92.08
2022-08-03T07:28:24.486Z,92.82
2022-08-03T07:30:52.663Z,93.77
2022-08-03T07:33:23.787Z,89.45
2022-08-03T07:35:51.879Z,90.34
2022-08-03T07:38:21.237Z,90.19
2022-08-03T07:40:49.715Z,84.82
2022-08-03T07:43:17.835Z,88.68
2022-08-03T07:45:51.429Z,84.86
2022-08-03T07:48:19.897Z,87.56
2022-08-03T07:50:55.793Z,87.80
2022-08-03T07:53:25.426Z,86.36
2022-08-03T07:56:02.998Z,86.70
2022-08-03T07:58:39.119Z,84.55
2022-08-03T08:01:09.055Z,84.91
2022-08-03T08:03:52.338Z,84.01
2022-08-03T08:06:23.698Z,83.97
2022-08-03T08:09:02.435Z,83.62
2022-08-03T08:11:30.699Z,87.37
2022-08-03T08:13:58.753Z,84.85
2022-08-03T08:16:32.502Z,84.72
2022-08-03T08:19:08.194Z,83.45
2022-08-03T08:21:53.533Z,83.92
2022-08-03T08:24:30.442Z,82.80
2022-08-03T08:27:00.167Z,82.14
2022-08-03T08:29:28.542Z,81.87
2022-08-03T08:31:58.128Z,81.65
2022-08-03T08:34:29.395Z,80.95
2022-08-03T08:37:00.504Z,84.73
2022-08-03T08:39:35.563Z,80.03
2022-08-03T08:42:05.281Z,79.52
2022-08-03T08:44:36.351Z,79.74
2022-08-03T08:47:05.927Z,78.54
2022-08-03T08:49:39.176Z,75.78
2022-08-03T08:52:25.126Z,75.97
2022-08-03T08:55:04.556Z,78.25
2022-08-03T08:57:48.184Z,78.60
2022-08-03T09:00:23.444Z,79.45
2022-08-03T09:02:53.210Z,79.14
2022-08-03T09:05:35.748Z,83.30
2022-08-03T09:08:22.207Z,77.59
2022-08-03T09:10:56.784Z,78.16
2022-08-03T09:13:25.194Z,79.74
2022-08-03T09:16:14.630Z,76.49
2022-08-03T09:18:45.658Z,79.12
2022-08-03T09:21:33.254Z,76.02
2022-08-03T09:24:20.669Z,75.90
2022-08-03T09:26:59.834Z,75.63
2022-08-03T09:29:30.231Z,73.34
2022-08-03T09:32:05.442Z,73.68
2022-08-03T09:34:41.841Z,72.30
2022-08-03T09:37:24.000Z,72.48
2022-08-03T09:40:31.585Z,74.35
2022-08-03T09:43:02.191Z,70.79
2022-08-03T09:45:41.928Z,71.76
2022-08-03T09:48:38.764Z,72.78
2022-08-03T09:51:13.397Z,71.42
2022-08-03T09:54:17.537Z,68.54
2022-08-03T09:56:50.254Z,71.55
2022-08-03T09:59:26.088Z,72.38
2022-08-03T10:01:58.876Z,71.00
2022-08-03T10:04:30.032Z,69.46
2022-08-03T10:07:08.014Z,66.73
2022-08-03T10:09:38.372Z,65.48
2022-08-03T10:12:14.240Z,66.09
2022-08-03T10:14:58.034Z,66.58
2022-08-03T10:17:29.661Z,67.85
2022-08-03T10:20:04.179Z,64.00
2022-08-03T10:22:43.724Z,65.89
2022-08-03T10:25:14.043Z,68.00
2022-08-03T10:27:55.797Z,65.12
2022-08-03T10:30:26.275Z,65.53
2022-08-03T10:32:58.292Z,63.92
2022-08-03T10:35:28.409Z,63.63
2022-08-03T10:38:18.682Z,60.85
2022-08-03T10:40:49.969Z,64.22
2022-08-03T10:43:47.181Z,62.74
2022-08-03T10:46:22.257Z,64.45
2022-08-03T10:48:52.570Z,62.02
2022-08-03T10:51:33.422Z,62.04
2022-08-03T10:54:02.938Z,61.53
2022-08-03T10:57:12.390Z,61.94
2022-08-03T11:00:03.917Z,64.09
2022-08-03T11:03:10.316Z,65.35
2022-08-03T11:05:48.375Z,58.25
2022-08-03T11:08:30.824Z,58.36
2022-08-03T11:11:28.794Z,59.04
2022-08-03T11:14:18.416Z,59.20
2022-08-03T11:16:49.952Z,55.45
2022-08-03T11:19:27.577Z,57.25
2022-08-03T11:22:11.265Z,58.66
2022-08-03T11:25:53.401Z,60.37
2022-08-03T11:28:28.926Z,56.67
2022-08-03T11:31:01.780Z,56.33
2022-08-03T11:33:39.603Z,57.01
2022-08-03T11:36:44.381Z,56.15
2022-08-03T11:40:02.835Z,56.82
2022-08-03T11:43:02.194Z,55.96
2022-08-03T11:46:03.837Z,56.25
2022-08-03T11:49:25.521Z,55.98
2022-08-03T11:51:57.511Z,50.20
2022-08-03T11:59:18.753Z,53.96
2022-08-03T12:00:44.774Z,50.38
2022-08-03T12:03:28.953Z,49.95
2022-08-03T12:05:58.400Z,48.30
2022-08-03T12:08:50.552Z,50.88
2022-08-03T12:12:00.425Z,51.01
2022-08-03T12:14:48.538Z,48.63
2022-08-03T12:17:23.294Z,47.13
2022-08-03T12:19:59.344Z,48.19
2022-08-03T12:23:37.993Z,47.25
2022-08-03T12:25:54.926Z,48.91
2022-08-03T12:28:36.819Z,45.90
2022-08-03T12:31:13.979Z,47.63
2022-08-03T12:34:00.757Z,46.00
2022-08-03T12:36:33.103Z,50.15
2022-08-03T12:39:08.477Z,47.71
2022-08-03T12:41:38.316Z,48.17
2022-08-03T12:44:10.500Z,47.13
2022-08-03T12:46:47.743Z,47.53
2022-08-03T12:49:23.770Z,47.67
2022-08-03T12:52:07.467Z,50.62
2022-08-03T12:54:43.452Z,47.78
2022-08-03T12:57:16.354Z,47.92
2022-08-03T12:59:53.532Z,52.31
2022-08-03T13:02:33.092Z,47.91
2022-08-03T13:05:38.802Z,46.06
2022-08-03T13:08:25.730Z,47.54
2022-08-03T13:10:58.280Z,44.23
2022-08-03T13:13:39.971Z,45.23
2022-08-03T13:16:08.156Z,44.50
2022-08-03T13:18:58.515Z,44.46
2022-08-03T13:22:03.275Z,47.95
2022-08-03T13:24:52.509Z,44.77
2022-08-03T13:28:04.120Z,45.93
2022-08-03T13:30:11.890Z,51.28
2022-08-03T13:32:40.073Z,44.12
2022-08-03T13:35:09.239Z,45.32
2022-08-03T13:37:40.392Z,45.45
2022-08-03T13:40:11.817Z,44.53
2022-08-03T13:42:56.913Z,43.28
2022-08-03T13:45:27.641Z,46.53
2022-08-03T13:48:08.019Z,42.95
2022-08-03T13:51:02.495Z,45.37
2022-08-03T13:53:35.549Z,45.06
2022-08-03T13:56:13.910Z,43.34
2022-08-03T13:58:46.685Z,42.41
2022-08-03T14:01:22.727Z,43.60
2022-08-03T14:04:06.209Z,43.05
2022-08-03T14:07:21.731Z,41.65
2022-08-03T14:09:57.397Z,40.40
2022-08-03T14:12:51.077Z,46.19
2022-08-03T14:15:19.629Z,41.46
2022-08-03T14:17:49.898Z,42.75
2022-08-03T14:20:36.712Z,41.89
2022-08-03T14:23:09.885Z,41.58
2022-08-03T14:25:44.475Z,42.09
2022-08-03T14:28:37.807Z,40.05
2022-08-03T14:32:11.550Z,42.32
2022-08-03T14:34:13.135Z,41.06
2022-08-03T14:36:52.064Z,43.89
2022-08-03T14:39:24.470Z,38.90
2022-08-03T14:41:59.766Z,38.77
2022-08-03T14:44:34.425Z,38.19
2022-08-03T14:47:05.297Z,39.54
2022-08-03T14:50:37.186Z,40.60
2022-08-03T14:52:23.783Z,37.10
2022-08-03T14:54:51.843Z,40.21
2022-08-03T14:57:21.625Z,38.40
2022-08-03T14:59:56.208Z,41.74
2022-08-03T15:02:25.901Z,38.56
2022-08-03T15:04:54.127Z,39.52
2022-08-03T15:07:30.657Z,42.24
2022-08-03T15:09:59.699Z,39.68
2022-08-03T15:12:43.433Z,38.52
2022-08-03T15:15:15.882Z,37.98
2022-08-03T15:18:00.133Z,37.96
2022-08-03T15:20:42.985Z,41.83
2022-08-03T15:23:17.928Z,44.32
2022-08-03T15:26:03.894Z,42.25
2022-08-03T15:28:37.279Z,39.43
2022-08-03T15:31:10.586Z,37.56
2022-08-03T15:33:42.783Z,39.28
2022-08-03T15:36:10.979Z,39.66
2022-08-03T15:38:39.024Z,38.27
2022-08-03T15:41:08.753Z,36.83
2022-08-03T15:43:41.908Z,38.04
2022-08-03T15:46:29.241Z,40.74
2022-08-03T15:48:57.734Z,38.26
2022-08-03T15:51:25.780Z,39.25
2022-08-03T15:53:53.793Z,36.94
2022-08-03T15:56:21.840Z,39.76
2022-08-03T15:59:11.422Z,40.09
2022-08-03T16:01:42.830Z,42.99
2022-08-03T16:04:10.924Z,41.33
2022-08-03T16:06:42.150Z,40.62
2022-08-03T16:09:23.574Z,42.78
2022-08-03T16:12:00.652Z,42.60
2022-08-03T16:14:34.415Z,43.91
2022-08-03T16:17:11.035Z,41.83
2022-08-03T16:19:39.086Z,44.81
2022-08-03T16:22:08.219Z,44.79
2022-08-03T16:24:37.854Z,42.87
2022-08-03T16:27:17.223Z,44.38
2022-08-03T16:29:55.523Z,44.45
2022-08-03T16:32:25.026Z,45.64
2022-08-03T16:34:53.041Z,42.81
2022-08-03T16:37:39.821Z,42.15
2022-08-03T16:40:19.212Z,42.27
2022-08-03T16:42:48.019Z,41.01
2022-08-03T16:45:16.228Z,41.18
2022-08-03T16:48:01.737Z,41.62
2022-08-03T16:50:35.974Z,39.61
2022-08-03T16:53:09.992Z,38.88
2022-08-03T16:55:51.831Z,41.19
2022-08-03T16:58:34.790Z,43.11
2022-08-03T17:01:22.413Z,40.38
2022-08-03T17:04:01.971Z,41.35
2022-08-03T17:06:33.834Z,39.73
2022-08-03T17:09:03.219Z,39.67
2022-08-03T17:11:32.134Z,40.41
2022-08-03T17:14:01.329Z,41.44
2022-08-03T17:16:31.628Z,40.46
2022-08-03T17:19:05.358Z,40.28
2022-08-03T17:21:39.130Z,40.00
2022-08-03T17:24:12.465Z,39.33
2022-08-03T17:26:44.740Z,38.33
2022-08-03T17:29:14.984Z,38.25
2022-08-03T17:31:49.128Z,42.40
2022-08-03T17:34:19.988Z,41.72
2022-08-03T17:37:05.773Z,41.55
2022-08-03T17:39:58.825Z,42.72
2022-08-03T17:42:29.444Z,48.38
2022-08-03T17:45:01.690Z,47.77
2022-08-03T17:47:42.881Z,49.04
2022-08-03T17:50:24.518Z,47.91
2022-08-03T17:52:58.686Z,52.77
2022-08-03T17:55:58.553Z,53.26
2022-08-03T17:58:23.660Z,48.13
2022-08-03T18:02:00.219Z,52.31
2022-08-03T18:04:11.032Z,56.30
2022-08-03T18:06:55.865Z,57.59
2022-08-03T18:10:06.793Z,53.80
2022-08-03T18:12:18.023Z,54.51
2022-08-03T18:14:57.554Z,54.60
2022-08-03T18:17:55.583Z,56.10
2022-08-03T18:20:33.189Z,59.66
2022-08-03T18:23:08.360Z,59.51
2022-08-03T18:25:45.632Z,57.88
2022-08-03T18:28:18.491Z,56.31
2022-08-03T18:34:17.949Z,61.26
2022-08-03T18:36:30.548Z,65.27
2022-08-03T18:39:00.591Z,64.07
2022-08-03T18:41:32.943Z,76.13
2022-08-03T18:44:07.298Z,72.60
2022-08-03T18:46:49.011Z,69.27
2022-08-03T18:49:24.784Z,64.33
2022-08-03T18:52:03.516Z,63.14
2022-08-03T18:54:45.676Z,72.27
2022-08-03T18:57:35.289Z,65.02
2022-08-03T19:00:12.236Z,66.53
2022-08-03T19:02:48.868Z,69.44
2022-08-03T19:05:19.624Z,71.44
2022-08-03T19:07:57.979Z,91.62
2022-08-03T19:10:32.462Z,95.22
2022-08-03T19:13:11.306Z,100.00
2022-08-03T19:15:51.039Z,95.52
2022-08-03T19:18:22.060Z,96.22
2022-08-03T19:20:53.206Z,100.00
2022-08-03T19:23:24.763Z,95.91
2022-08-03T19:25:54.623Z,91.45
2022-08-03T19:28:29.796Z,93.59
2022-08-03T19:30:58.513Z,90.62
2022-08-03T19:33:29.919Z,100.00
2022-08-03T19:35:58.620Z,95.15
2022-08-03T19:38:29.854Z,100.00
2022-08-03T19:41:02.476Z,100.00
2022-08-03T19:43:52.809Z,100.00
2022-08-03T19:46:27.620Z,98.42
2022-08-03T19:49:02.064Z,100.00
2022-08-03T19:52:01.406Z,92.73
2022-08-03T19:54:29.896Z,97.11
2022-08-03T19:57:02.315Z,91.19
2022-08-03T19:59:30.946Z,87.63
2022-08-03T20:01:58.967Z,87.72
2022-08-03T20:04:26.970Z,89.47
2022-08-03T20:06:57.274Z,88.03
2022-08-03T20:09:25.574Z,89.75
2022-08-03T20:11:59.023Z,91.04
2022-08-03T20:14:28.731Z,91.10
2022-08-03T20:16:57.311Z,91.86
2022-08-03T20:19:25.361Z,93.79
2022-08-03T20:22:00.983Z,93.96
2022-08-03T20:24:31.772Z,89.86
2022-08-03T20:27:01.419Z,91.53
2022-08-03T20:30:05.387Z,94.85
2022-08-03T20:32:24.764Z,100.00
2022-08-03T20:34:53.354Z,99.29
2022-08-03T20:37:21.468Z,100.00
2022-08-03T20:39:49.939Z,100.00
2022-08-03T20:42:21.801Z,100.00
2022-08-03T20:45:06.026Z,96.26
2022-08-03T20:47:50.671Z,95.42
2022-08-03T20:50:22.162Z,94.61
2022-08-03T20:52:50.972Z,95.51
2022-08-03T20:55:20.303Z,94.51
2022-08-03T20:58:08.163Z,95.65
2022-08-03T21:00:37.791Z,93.01
2022-08-03T21:03:06.811Z,94.92
2022-08-03T21:08:28.138Z,100.00
2022-08-03T21:10:59.114Z,97.55
2022-08-03T21:12:58.148Z,60.89
2022-08-03T21:13:08.028Z,97.31
2022-08-03T21:13:33.221Z,94.85
2022-08-03T21:16:14.262Z,93.58
2022-08-03T21:18:47.001Z,96.10
2022-08-03T21:21:19.006Z,94.27
2022-08-03T21:23:53.667Z,95.05
2022-08-03T21:26:24.493Z,100.00
2022-08-03T21:28:54.228Z,100.00
2022-08-03T21:31:26.523Z,100.00
2022-08-03T21:33:57.908Z,100.00
2022-08-03T21:36:27.951Z,100.00
2022-08-03T21:38:57.499Z,100.00
2022-08-03T21:41:26.571Z,100.00
2022-08-03T21:44:03.041Z,100.00
2022-08-03T21:46:38.681Z,100.00
2022-08-03T21:50:04.749Z,100.00
2022-08-03T21:52:00.773Z,100.00
2022-08-03T21:54:34.397Z,100.00
2022-08-03T21:57:05.580Z,100.00
2022-08-03T21:59:37.691Z,100.00
2022-08-03T22:02:20.839Z,100.00
2022-08-03T22:04:57.205Z,100.00
2022-08-03T22:07:26.374Z,100.00
2022-08-03T22:09:55.321Z,100.00
2022-08-03T22:12:32.362Z,99.96
2022-08-03T22:15:02.401Z,99.18
2022-08-03T22:17:55.541Z,98.83
2022-08-03T22:20:22.542Z,100.00
2022-08-03T22:22:55.153Z,100.00
2022-08-03T22:25:29.035Z,100.00
2022-08-03T22:27:59.080Z,100.00
2022-08-03T22:30:27.403Z,100.00
2022-08-03T22:32:57.717Z,100.00
2022-08-03T22:35:27.293Z,99.77
2022-08-03T22:37:56.142Z,98.97
2022-08-03T22:40:24.243Z,99.76
2022-08-03T22:42:53.478Z,98.81
2022-08-03T22:46:07.771Z,98.68
2022-08-03T22:48:12.527Z,99.40
2022-08-03T22:50:40.777Z,99.10
2022-08-03T22:53:09.035Z,100.00
2022-08-03T22:55:37.875Z,100.00
2022-08-03T22:58:05.972Z,100.00
2022-08-03T23:00:34.284Z,100.00
2022-08-03T23:03:03.697Z,100.00
2022-08-03T23:06:01.866Z,100.00
2022-08-03T23:08:27.447Z,100.00
2022-08-03T23:10:57.946Z,100.00
2022-08-03T23:13:34.353Z,100.00
2022-08-03T23:16:02.851Z,100.00
2022-08-03T23:18:43.463Z,100.00
2022-08-03T23:21:15.240Z,100.00
2022-08-03T23:23:44.163Z,100.00
2022-08-03T23:26:14.292Z,100.00
2022-08-03T23:28:43.411Z,100.00
2022-08-03T23:31:11.801Z,100.00
2022-08-03T23:33:40.655Z,100.00
2022-08-03T23:36:30.397Z,100.00
2022-08-03T23:39:00.300Z,100.00
2022-08-03T23:41:28.729Z,100.00
2022-08-03T23:43:57.501Z,100.00
2022-08-03T23:46:27.474Z,100.00
2022-08-03T23:48:56.654Z,100.00
2022-08-03T23:51:44.879Z,100.00
2022-08-03T23:54:30.321Z,100.00
2022-08-03T23:57:04.783Z,100.00
2022-08-03T23:59:39.710Z,100.00
